sensor_id;sensor_type;location;lat;lon;timestamp;temperature;humidity
3466;DHT22;1747;48.884;9.160;2022-12-10T00:01:31;3.40;99.90
3466;DHT22;1747;48.884;9.160;2022-12-10T00:03:59;3.40;99.90
3466;DHT22;1747;48.884;9.160;2022-12-10T00:06:28;3.40;99.90
3466;DHT22;1747;48.884;9.160;2022-12-10T00:08:55;3.30;99.90
3466;DHT22;1747;48.884;9.160;2022-12-10T00:11:23;3.30;99.90
3466;DHT22;1747;48.884;9.160;2022-12-10T00:13:52;3.30;99.90
3466;DHT22;1747;48.884;9.160;2022-12-10T00:16:20;3.30;99.90
3466;DHT22;1747;48.884;9.160;2022-12-10T00:18:48;3.30;99.90
3466;DHT22;1747;48.884;9.160;2022-12-10T00:21:17;3.30;99.90
3466;DHT22;1747;48.884;9.160;2022-12-10T00:23:44;3.40;99.90
3466;DHT22;1747;48.884;9.160;2022-12-10T00:26:13;3.30;99.90
3466;DHT22;1747;48.884;9.160;2022-12-10T00:28:41;3.30;99.90
3466;DHT22;1747;48.884;9.160;2022-12-10T00:31:11;3.30;99.90
3466;DHT22;1747;48.884;9.160;2022-12-10T00:33:41;3.30;99.90
3466;DHT22;1747;48.884;9.160;2022-12-10T00:36:10;3.30;99.90
3466;DHT22;1747;48.884;9.160;2022-12-10T00:38:38;3.30;99.90
3466;DHT22;1747;48.884;9.160;2022-12-10T00:41:05;3.30;99.90
3466;DHT22;1747;48.884;9.160;2022-12-10T00:43:33;3.30;99.90
3466;DHT22;1747;48.884;9.160;2022-12-10T00:46:00;3.30;99.90
3466;DHT22;1747;48.884;9.160;2022-12-10T00:48:28;3.30;99.90
3466;DHT22;1747;48.884;9.160;2022-12-10T00:50:57;3.30;99.90
3466;DHT22;1747;48.884;9.160;2022-12-10T00:53:25;3.30;99.90
3466;DHT22;1747;48.884;9.160;2022-12-10T00:55:53;3.30;99.90
3466;DHT22;1747;48.884;9.160;2022-12-10T00:58:20;3.30;99.90
3466;DHT22;1747;48.884;9.160;2022-12-10T01:00:48;3.20;99.90
3466;DHT22;1747;48.884;9.160;2022-12-10T01:03:15;3.30;99.90
3466;DHT22;1747;48.884;9.160;2022-12-10T01:05:43;3.30;99.90
3466;DHT22;1747;48.884;9.160;2022-12-10T01:08:10;3.30;99.90
3466;DHT22;1747;48.884;9.160;2022-12-10T01:10:37;3.30;99.90
3466;DHT22;1747;48.884;9.160;2022-12-10T01:13:04;3.30;99.90
3466;DHT22;1747;48.884;9.160;2022-12-10T01:15:31;3.30;99.90
3466;DHT22;1747;48.884;9.160;2022-12-10T01:17:58;3.30;99.90
3466;DHT22;1747;48.884;9.160;2022-12-10T01:20:25;3.30;99.90
3466;DHT22;1747;48.884;9.160;2022-12-10T01:22:53;3.30;99.90
3466;DHT22;1747;48.884;9.160;2022-12-10T01:25:20;3.30;99.90
3466;DHT22;1747;48.884;9.160;2022-12-10T01:27:47;3.30;99.90
3466;DHT22;1747;48.884;9.160;2022-12-10T01:30:13;3.30;99.90
3466;DHT22;1747;48.884;9.160;2022-12-10T01:32:40;3.30;99.90
3466;DHT22;1747;48.884;9.160;2022-12-10T01:35:08;3.20;99.90
3466;DHT22;1747;48.884;9.160;2022-12-10T01:37:34;3.30;99.90
3466;DHT22;1747;48.884;9.160;2022-12-10T01:40:03;3.20;99.90
3466;DHT22;1747;48.884;9.160;2022-12-10T01:42:30;3.20;99.90
3466;DHT22;1747;48.884;9.160;2022-12-10T01:45:04;3.20;99.90
3466;DHT22;1747;48.884;9.160;2022-12-10T01:47:32;3.20;99.90
3466;DHT22;1747;48.884;9.160;2022-12-10T01:49:59;3.20;99.90
3466;DHT22;1747;48.884;9.160;2022-12-10T01:52:27;3.20;99.90
3466;DHT22;1747;48.884;9.160;2022-12-10T01:54:55;3.20;99.90
3466;DHT22;1747;48.884;9.160;2022-12-10T01:57:25;3.20;99.90
3466;DHT22;1747;48.884;9.160;2022-12-10T01:59:55;3.20;99.90
3466;DHT22;1747;48.884;9.160;2022-12-10T02:02:30;3.20;99.90
3466;DHT22;1747;48.884;9.160;2022-12-10T02:05:07;3.20;99.90
3466;DHT22;1747;48.884;9.160;2022-12-10T02:07:46;3.20;99.90
3466;DHT22;1747;48.884;9.160;2022-12-10T02:10:21;3.20;99.90
3466;DHT22;1747;48.884;9.160;2022-12-10T02:12:56;3.20;99.90
3466;DHT22;1747;48.884;9.160;2022-12-10T02:15:26;3.20;99.90
3466;DHT22;1747;48.884;9.160;2022-12-10T02:17:56;3.20;99.90
3466;DHT22;1747;48.884;9.160;2022-12-10T02:20:28;3.20;99.90
3466;DHT22;1747;48.884;9.160;2022-12-10T02:23:01;3.20;99.90
3466;DHT22;1747;48.884;9.160;2022-12-10T02:25:34;3.20;99.90
3466;DHT22;1747;48.884;9.160;2022-12-10T02:28:12;3.20;99.90
3466;DHT22;1747;48.884;9.160;2022-12-10T02:30:42;3.20;99.90
3466;DHT22;1747;48.884;9.160;2022-12-10T02:33:10;3.20;99.90
3466;DHT22;1747;48.884;9.160;2022-12-10T02:35:41;3.20;99.90
3466;DHT22;1747;48.884;9.160;2022-12-10T02:38:11;3.20;99.90
3466;DHT22;1747;48.884;9.160;2022-12-10T02:40:43;3.20;99.90
3466;DHT22;1747;48.884;9.160;2022-12-10T02:43:12;3.20;99.90
3466;DHT22;1747;48.884;9.160;2022-12-10T02:45:42;3.20;99.90
3466;DHT22;1747;48.884;9.160;2022-12-10T02:48:10;3.20;99.90
3466;DHT22;1747;48.884;9.160;2022-12-10T02:50:39;3.20;99.90
3466;DHT22;1747;48.884;9.160;2022-12-10T02:53:06;3.20;99.90
3466;DHT22;1747;48.884;9.160;2022-12-10T02:55:44;3.20;99.90
3466;DHT22;1747;48.884;9.160;2022-12-10T02:58:18;3.20;99.90
3466;DHT22;1747;48.884;9.160;2022-12-10T03:00:56;3.20;99.90
3466;DHT22;1747;48.884;9.160;2022-12-10T03:03:34;3.20;99.90
3466;DHT22;1747;48.884;9.160;2022-12-10T03:06:07;3.20;99.90
3466;DHT22;1747;48.884;9.160;2022-12-10T03:08:40;3.20;99.90
3466;DHT22;1747;48.884;9.160;2022-12-10T03:11:11;3.20;99.90
3466;DHT22;1747;48.884;9.160;2022-12-10T03:13:49;3.20;99.90
3466;DHT22;1747;48.884;9.160;2022-12-10T03:16:19;3.20;99.90
3466;DHT22;1747;48.884;9.160;2022-12-10T03:18:50;3.10;99.90
3466;DHT22;1747;48.884;9.160;2022-12-10T03:21:19;3.00;99.90
3466;DHT22;1747;48.884;9.160;2022-12-10T03:23:47;3.00;99.90
3466;DHT22;1747;48.884;9.160;2022-12-10T03:26:16;3.00;99.90
3466;DHT22;1747;48.884;9.160;2022-12-10T03:28:47;3.00;99.90
3466;DHT22;1747;48.884;9.160;2022-12-10T03:31:15;3.00;99.90
3466;DHT22;1747;48.884;9.160;2022-12-10T03:33:45;3.00;99.90
3466;DHT22;1747;48.884;9.160;2022-12-10T03:36:13;3.00;99.90
3466;DHT22;1747;48.884;9.160;2022-12-10T03:38:41;3.00;99.90
3466;DHT22;1747;48.884;9.160;2022-12-10T03:41:08;3.00;99.90
3466;DHT22;1747;48.884;9.160;2022-12-10T03:43:35;3.00;99.90
3466;DHT22;1747;48.884;9.160;2022-12-10T03:46:02;3.00;99.90
3466;DHT22;1747;48.884;9.160;2022-12-10T03:48:29;3.00;99.90
3466;DHT22;1747;48.884;9.160;2022-12-10T03:50:57;3.00;99.90
3466;DHT22;1747;48.884;9.160;2022-12-10T03:53:24;3.00;99.90
3466;DHT22;1747;48.884;9.160;2022-12-10T03:55:51;3.00;99.90
3466;DHT22;1747;48.884;9.160;2022-12-10T03:58:17;3.00;99.90
3466;DHT22;1747;48.884;9.160;2022-12-10T04:00:44;3.00;99.90
3466;DHT22;1747;48.884;9.160;2022-12-10T04:03:11;3.00;99.90
3466;DHT22;1747;48.884;9.160;2022-12-10T04:05:38;3.00;99.90
3466;DHT22;1747;48.884;9.160;2022-12-10T04:08:06;3.20;99.90
3466;DHT22;1747;48.884;9.160;2022-12-10T04:10:35;3.30;99.90
3466;DHT22;1747;48.884;9.160;2022-12-10T04:13:02;3.40;99.90
3466;DHT22;1747;48.884;9.160;2022-12-10T04:15:46;3.30;99.90
3466;DHT22;1747;48.884;9.160;2022-12-10T04:18:30;3.20;99.90
3466;DHT22;1747;48.884;9.160;2022-12-10T04:20:57;3.10;99.90
3466;DHT22;1747;48.884;9.160;2022-12-10T04:23:43;3.00;99.90
3466;DHT22;1747;48.884;9.160;2022-12-10T04:26:27;3.00;99.90
3466;DHT22;1747;48.884;9.160;2022-12-10T04:29:11;3.00;99.90
3466;DHT22;1747;48.884;9.160;2022-12-10T04:31:38;3.00;99.90
3466;DHT22;1747;48.884;9.160;2022-12-10T04:34:05;2.90;99.90
3466;DHT22;1747;48.884;9.160;2022-12-10T04:36:32;2.90;99.90
3466;DHT22;1747;48.884;9.160;2022-12-10T04:39:00;3.00;99.90
3466;DHT22;1747;48.884;9.160;2022-12-10T04:41:27;3.00;99.90
3466;DHT22;1747;48.884;9.160;2022-12-10T04:43:54;2.90;99.90
3466;DHT22;1747;48.884;9.160;2022-12-10T04:46:21;2.90;99.90
3466;DHT22;1747;48.884;9.160;2022-12-10T04:48:48;2.90;99.90
3466;DHT22;1747;48.884;9.160;2022-12-10T04:51:14;2.90;99.90
3466;DHT22;1747;48.884;9.160;2022-12-10T04:53:41;2.90;99.90
3466;DHT22;1747;48.884;9.160;2022-12-10T04:56:09;2.90;99.90
3466;DHT22;1747;48.884;9.160;2022-12-10T04:58:36;3.00;99.90
3466;DHT22;1747;48.884;9.160;2022-12-10T05:01:04;3.00;99.90
3466;DHT22;1747;48.884;9.160;2022-12-10T05:03:31;2.90;99.90
3466;DHT22;1747;48.884;9.160;2022-12-10T05:06:01;3.00;99.90
3466;DHT22;1747;48.884;9.160;2022-12-10T05:08:28;3.00;99.90
3466;DHT22;1747;48.884;9.160;2022-12-10T05:10:55;2.80;99.90
3466;DHT22;1747;48.884;9.160;2022-12-10T05:13:23;2.80;99.90
3466;DHT22;1747;48.884;9.160;2022-12-10T05:15:50;2.70;99.90
3466;DHT22;1747;48.884;9.160;2022-12-10T05:18:16;2.70;99.90
3466;DHT22;1747;48.884;9.160;2022-12-10T05:20:43;2.70;99.90
3466;DHT22;1747;48.884;9.160;2022-12-10T05:23:10;2.70;99.90
3466;DHT22;1747;48.884;9.160;2022-12-10T05:26:01;2.70;99.90
3466;DHT22;1747;48.884;9.160;2022-12-10T05:28:32;2.70;99.90
3466;DHT22;1747;48.884;9.160;2022-12-10T05:30:59;2.60;99.90
3466;DHT22;1747;48.884;9.160;2022-12-10T05:33:27;2.70;99.90
3466;DHT22;1747;48.884;9.160;2022-12-10T05:35:55;2.70;99.90
3466;DHT22;1747;48.884;9.160;2022-12-10T05:38:23;2.70;99.90
3466;DHT22;1747;48.884;9.160;2022-12-10T05:40:50;2.80;99.90
3466;DHT22;1747;48.884;9.160;2022-12-10T05:43:17;2.80;99.90
3466;DHT22;1747;48.884;9.160;2022-12-10T05:45:46;2.80;99.90
3466;DHT22;1747;48.884;9.160;2022-12-10T05:48:14;2.80;99.90
3466;DHT22;1747;48.884;9.160;2022-12-10T05:50:41;2.80;99.90
3466;DHT22;1747;48.884;9.160;2022-12-10T05:53:08;2.80;99.90
3466;DHT22;1747;48.884;9.160;2022-12-10T05:55:35;2.80;99.90
3466;DHT22;1747;48.884;9.160;2022-12-10T05:58:02;2.80;99.90
3466;DHT22;1747;48.884;9.160;2022-12-10T06:00:29;2.70;99.90
3466;DHT22;1747;48.884;9.160;2022-12-10T06:02:57;2.70;99.90
3466;DHT22;1747;48.884;9.160;2022-12-10T06:05:24;2.60;99.90
3466;DHT22;1747;48.884;9.160;2022-12-10T06:07:51;2.70;99.90
3466;DHT22;1747;48.884;9.160;2022-12-10T06:10:18;2.60;99.90
3466;DHT22;1747;48.884;9.160;2022-12-10T06:12:45;2.60;99.90
3466;DHT22;1747;48.884;9.160;2022-12-10T06:15:11;2.60;99.90
3466;DHT22;1747;48.884;9.160;2022-12-10T06:17:38;2.60;99.90
3466;DHT22;1747;48.884;9.160;2022-12-10T06:20:08;2.60;99.90
3466;DHT22;1747;48.884;9.160;2022-12-10T06:22:35;2.60;99.90
3466;DHT22;1747;48.884;9.160;2022-12-10T06:25:02;2.60;99.90
3466;DHT22;1747;48.884;9.160;2022-12-10T06:27:30;2.60;99.90
3466;DHT22;1747;48.884;9.160;2022-12-10T06:29:57;2.60;99.90
3466;DHT22;1747;48.884;9.160;2022-12-10T06:32:24;2.60;99.90
3466;DHT22;1747;48.884;9.160;2022-12-10T06:34:51;2.60;99.90
3466;DHT22;1747;48.884;9.160;2022-12-10T06:37:19;2.60;99.90
3466;DHT22;1747;48.884;9.160;2022-12-10T06:39:46;2.50;99.90
3466;DHT22;1747;48.884;9.160;2022-12-10T06:42:13;2.60;99.90
3466;DHT22;1747;48.884;9.160;2022-12-10T06:44:40;2.50;99.90
3466;DHT22;1747;48.884;9.160;2022-12-10T06:47:07;2.50;99.90
3466;DHT22;1747;48.884;9.160;2022-12-10T06:49:34;2.50;99.90
3466;DHT22;1747;48.884;9.160;2022-12-10T06:52:00;2.50;99.90
3466;DHT22;1747;48.884;9.160;2022-12-10T06:54:29;2.50;99.90
3466;DHT22;1747;48.884;9.160;2022-12-10T06:56:56;2.50;99.90
3466;DHT22;1747;48.884;9.160;2022-12-10T06:59:23;2.50;99.90
3466;DHT22;1747;48.884;9.160;2022-12-10T07:01:50;2.50;99.90
3466;DHT22;1747;48.884;9.160;2022-12-10T07:04:17;2.50;99.90
3466;DHT22;1747;48.884;9.160;2022-12-10T07:06:44;2.50;99.90
3466;DHT22;1747;48.884;9.160;2022-12-10T07:09:11;2.50;99.90
3466;DHT22;1747;48.884;9.160;2022-12-10T07:11:39;2.50;99.90
3466;DHT22;1747;48.884;9.160;2022-12-10T07:14:06;2.50;99.90
3466;DHT22;1747;48.884;9.160;2022-12-10T07:16:33;2.50;99.90
3466;DHT22;1747;48.884;9.160;2022-12-10T07:19:01;2.60;99.90
3466;DHT22;1747;48.884;9.160;2022-12-10T07:21:30;2.60;99.90
3466;DHT22;1747;48.884;9.160;2022-12-10T07:23:59;2.60;99.90
3466;DHT22;1747;48.884;9.160;2022-12-10T07:26:28;2.60;99.90
3466;DHT22;1747;48.884;9.160;2022-12-10T07:28:58;2.60;99.90
3466;DHT22;1747;48.884;9.160;2022-12-10T07:31:25;2.60;99.90
3466;DHT22;1747;48.884;9.160;2022-12-10T07:33:53;2.60;99.90
3466;DHT22;1747;48.884;9.160;2022-12-10T07:36:21;2.60;99.90
3466;DHT22;1747;48.884;9.160;2022-12-10T07:38:49;2.60;99.90
3466;DHT22;1747;48.884;9.160;2022-12-10T07:41:16;2.70;99.90
3466;DHT22;1747;48.884;9.160;2022-12-10T07:43:44;2.70;99.90
3466;DHT22;1747;48.884;9.160;2022-12-10T07:46:18;2.70;99.90
3466;DHT22;1747;48.884;9.160;2022-12-10T07:48:46;2.70;99.90
3466;DHT22;1747;48.884;9.160;2022-12-10T07:51:14;2.80;99.90
3466;DHT22;1747;48.884;9.160;2022-12-10T07:53:41;2.70;99.90
3466;DHT22;1747;48.884;9.160;2022-12-10T07:56:09;2.70;99.90
3466;DHT22;1747;48.884;9.160;2022-12-10T07:58:36;2.70;99.90
3466;DHT22;1747;48.884;9.160;2022-12-10T08:01:07;2.70;99.90
3466;DHT22;1747;48.884;9.160;2022-12-10T08:03:36;2.70;99.90
3466;DHT22;1747;48.884;9.160;2022-12-10T08:06:05;2.80;99.90
3466;DHT22;1747;48.884;9.160;2022-12-10T08:08:33;2.80;99.90
3466;DHT22;1747;48.884;9.160;2022-12-10T08:11:00;2.80;99.90
3466;DHT22;1747;48.884;9.160;2022-12-10T08:13:28;2.80;99.90
3466;DHT22;1747;48.884;9.160;2022-12-10T08:16:00;2.80;99.90
3466;DHT22;1747;48.884;9.160;2022-12-10T08:18:27;2.80;99.90
3466;DHT22;1747;48.884;9.160;2022-12-10T08:20:55;2.80;99.90
3466;DHT22;1747;48.884;9.160;2022-12-10T08:23:24;2.90;99.90
3466;DHT22;1747;48.884;9.160;2022-12-10T08:25:51;2.90;99.90
3466;DHT22;1747;48.884;9.160;2022-12-10T08:28:17;2.90;99.90
3466;DHT22;1747;48.884;9.160;2022-12-10T08:30:45;2.90;99.90
3466;DHT22;1747;48.884;9.160;2022-12-10T08:33:13;2.90;99.90
3466;DHT22;1747;48.884;9.160;2022-12-10T08:35:40;2.90;99.90
3466;DHT22;1747;48.884;9.160;2022-12-10T08:38:08;2.90;99.90
3466;DHT22;1747;48.884;9.160;2022-12-10T08:40:38;3.00;99.90
3466;DHT22;1747;48.884;9.160;2022-12-10T08:43:05;3.00;99.90
3466;DHT22;1747;48.884;9.160;2022-12-10T08:45:32;3.00;99.90
3466;DHT22;1747;48.884;9.160;2022-12-10T08:48:00;3.10;99.90
3466;DHT22;1747;48.884;9.160;2022-12-10T08:50:27;3.20;99.90
3466;DHT22;1747;48.884;9.160;2022-12-10T08:52:54;3.20;99.90
3466;DHT22;1747;48.884;9.160;2022-12-10T08:55:22;3.30;99.90
3466;DHT22;1747;48.884;9.160;2022-12-10T08:57:49;3.30;99.90
3466;DHT22;1747;48.884;9.160;2022-12-10T09:00:16;3.30;99.90
3466;DHT22;1747;48.884;9.160;2022-12-10T09:02:44;3.30;99.90
3466;DHT22;1747;48.884;9.160;2022-12-10T09:05:11;3.20;99.90
3466;DHT22;1747;48.884;9.160;2022-12-10T09:07:38;3.30;99.90
3466;DHT22;1747;48.884;9.160;2022-12-10T09:10:05;3.20;99.90
3466;DHT22;1747;48.884;9.160;2022-12-10T09:12:34;3.30;99.90
3466;DHT22;1747;48.884;9.160;2022-12-10T09:15:01;3.30;99.90
3466;DHT22;1747;48.884;9.160;2022-12-10T09:17:28;3.30;99.90
3466;DHT22;1747;48.884;9.160;2022-12-10T09:19:55;3.40;99.90
3466;DHT22;1747;48.884;9.160;2022-12-10T09:22:22;3.50;99.90
3466;DHT22;1747;48.884;9.160;2022-12-10T09:24:49;3.50;99.90
3466;DHT22;1747;48.884;9.160;2022-12-10T09:27:15;3.50;99.90
3466;DHT22;1747;48.884;9.160;2022-12-10T09:29:44;3.60;99.90
3466;DHT22;1747;48.884;9.160;2022-12-10T09:32:10;3.50;99.90
3466;DHT22;1747;48.884;9.160;2022-12-10T09:34:37;3.50;99.90
3466;DHT22;1747;48.884;9.160;2022-12-10T09:37:04;3.50;99.90
3466;DHT22;1747;48.884;9.160;2022-12-10T09:39:31;3.50;99.90
3466;DHT22;1747;48.884;9.160;2022-12-10T09:42:16;3.60;99.90
3466;DHT22;1747;48.884;9.160;2022-12-10T09:44:53;3.60;99.90
3466;DHT22;1747;48.884;9.160;2022-12-10T09:47:26;3.60;99.90
3466;DHT22;1747;48.884;9.160;2022-12-10T09:50:02;3.60;99.90
3466;DHT22;1747;48.884;9.160;2022-12-10T09:52:36;3.60;99.90
3466;DHT22;1747;48.884;9.160;2022-12-10T09:55:11;3.50;99.90
3466;DHT22;1747;48.884;9.160;2022-12-10T09:57:42;3.60;99.90
3466;DHT22;1747;48.884;9.160;2022-12-10T10:00:23;3.60;99.90
3466;DHT22;1747;48.884;9.160;2022-12-10T10:02:56;3.70;99.90
3466;DHT22;1747;48.884;9.160;2022-12-10T10:05:26;3.90;99.90
3466;DHT22;1747;48.884;9.160;2022-12-10T10:07:55;4.10;99.90
3466;DHT22;1747;48.884;9.160;2022-12-10T10:10:26;4.10;99.90
3466;DHT22;1747;48.884;9.160;2022-12-10T10:12:55;4.20;99.90
3466;DHT22;1747;48.884;9.160;2022-12-10T10:15:30;4.20;99.90
3466;DHT22;1747;48.884;9.160;2022-12-10T10:18:00;4.20;99.90
3466;DHT22;1747;48.884;9.160;2022-12-10T10:20:28;4.20;99.90
3466;DHT22;1747;48.884;9.160;2022-12-10T10:22:57;4.20;99.90
3466;DHT22;1747;48.884;9.160;2022-12-10T10:25:26;4.20;99.90
3466;DHT22;1747;48.884;9.160;2022-12-10T10:27:53;4.20;99.90
3466;DHT22;1747;48.884;9.160;2022-12-10T10:30:22;4.20;99.90
3466;DHT22;1747;48.884;9.160;2022-12-10T10:32:52;4.20;99.90
3466;DHT22;1747;48.884;9.160;2022-12-10T10:35:26;4.20;99.90
3466;DHT22;1747;48.884;9.160;2022-12-10T10:37:58;4.10;99.90
3466;DHT22;1747;48.884;9.160;2022-12-10T10:40:31;4.00;99.90
3466;DHT22;1747;48.884;9.160;2022-12-10T10:43:01;4.00;99.90
3466;DHT22;1747;48.884;9.160;2022-12-10T10:45:38;4.10;99.90
3466;DHT22;1747;48.884;9.160;2022-12-10T10:48:12;4.10;99.90
3466;DHT22;1747;48.884;9.160;2022-12-10T10:50:41;4.10;99.90
3466;DHT22;1747;48.884;9.160;2022-12-10T10:53:25;4.10;99.90
3466;DHT22;1747;48.884;9.160;2022-12-10T10:55:54;4.20;99.90
3466;DHT22;1747;48.884;9.160;2022-12-10T10:58:23;4.20;99.90
3466;DHT22;1747;48.884;9.160;2022-12-10T11:00:58;4.20;99.90
3466;DHT22;1747;48.884;9.160;2022-12-10T11:03:28;4.20;99.90
3466;DHT22;1747;48.884;9.160;2022-12-10T11:05:57;4.20;99.90
3466;DHT22;1747;48.884;9.160;2022-12-10T11:08:26;4.20;99.90
3466;DHT22;1747;48.884;9.160;2022-12-10T11:10:58;4.20;99.90
3466;DHT22;1747;48.884;9.160;2022-12-10T11:13:29;4.20;99.90
3466;DHT22;1747;48.884;9.160;2022-12-10T11:15:59;4.30;99.90
3466;DHT22;1747;48.884;9.160;2022-12-10T11:18:31;4.30;99.90
3466;DHT22;1747;48.884;9.160;2022-12-10T11:21:04;4.50;99.90
3466;DHT22;1747;48.884;9.160;2022-12-10T11:23:36;4.60;99.90
3466;DHT22;1747;48.884;9.160;2022-12-10T11:26:15;4.60;99.90
3466;DHT22;1747;48.884;9.160;2022-12-10T11:28:59;4.80;99.90
3466;DHT22;1747;48.884;9.160;2022-12-10T11:31:40;5.00;99.90
3466;DHT22;1747;48.884;9.160;2022-12-10T11:34:16;4.90;99.90
3466;DHT22;1747;48.884;9.160;2022-12-10T11:36:54;4.70;99.90
3466;DHT22;1747;48.884;9.160;2022-12-10T11:39:38;4.80;99.90
3466;DHT22;1747;48.884;9.160;2022-12-10T11:42:18;4.70;99.90
3466;DHT22;1747;48.884;9.160;2022-12-10T11:44:51;4.80;99.90
3466;DHT22;1747;48.884;9.160;2022-12-10T11:47:40;4.80;99.90
3466;DHT22;1747;48.884;9.160;2022-12-10T11:50:18;4.80;99.90
3466;DHT22;1747;48.884;9.160;2022-12-10T11:53:02;4.80;99.90
3466;DHT22;1747;48.884;9.160;2022-12-10T11:55:42;4.80;99.90
3466;DHT22;1747;48.884;9.160;2022-12-10T11:58:27;4.80;99.90
3466;DHT22;1747;48.884;9.160;2022-12-10T12:01:00;4.80;99.90
3466;DHT22;1747;48.884;9.160;2022-12-10T12:03:55;4.80;99.90
3466;DHT22;1747;48.884;9.160;2022-12-10T12:06:45;4.80;99.90
3466;DHT22;1747;48.884;9.160;2022-12-10T12:09:22;4.80;99.90
3466;DHT22;1747;48.884;9.160;2022-12-10T12:12:02;4.80;99.90
3466;DHT22;1747;48.884;9.160;2022-12-10T12:14:33;4.80;99.90
3466;DHT22;1747;48.884;9.160;2022-12-10T12:17:07;4.80;99.90
3466;DHT22;1747;48.884;9.160;2022-12-10T12:19:38;4.80;99.90
3466;DHT22;1747;48.884;9.160;2022-12-10T12:22:25;4.80;99.90
3466;DHT22;1747;48.884;9.160;2022-12-10T12:24:55;4.90;99.90
3466;DHT22;1747;48.884;9.160;2022-12-10T12:27:27;4.90;99.90
3466;DHT22;1747;48.884;9.160;2022-12-10T12:30:03;4.90;99.90
3466;DHT22;1747;48.884;9.160;2022-12-10T12:32:43;5.00;99.90
3466;DHT22;1747;48.884;9.160;2022-12-10T12:35:14;5.00;99.90
3466;DHT22;1747;48.884;9.160;2022-12-10T12:37:48;5.10;99.90
3466;DHT22;1747;48.884;9.160;2022-12-10T12:40:25;5.20;99.90
3466;DHT22;1747;48.884;9.160;2022-12-10T12:42:58;5.10;99.90
3466;DHT22;1747;48.884;9.160;2022-12-10T12:45:33;5.10;99.90
3466;DHT22;1747;48.884;9.160;2022-12-10T12:48:09;5.10;99.90
3466;DHT22;1747;48.884;9.160;2022-12-10T12:50:42;5.10;99.90
3466;DHT22;1747;48.884;9.160;2022-12-10T12:53:13;5.00;99.90
3466;DHT22;1747;48.884;9.160;2022-12-10T12:55:46;5.00;99.90
3466;DHT22;1747;48.884;9.160;2022-12-10T12:58:20;5.00;99.90
3466;DHT22;1747;48.884;9.160;2022-12-10T13:00:53;4.90;99.90
3466;DHT22;1747;48.884;9.160;2022-12-10T13:03:29;4.80;99.90
3466;DHT22;1747;48.884;9.160;2022-12-10T13:06:13;4.70;99.90
3466;DHT22;1747;48.884;9.160;2022-12-10T13:08:45;4.70;99.90
3466;DHT22;1747;48.884;9.160;2022-12-10T13:11:19;4.70;99.90
3466;DHT22;1747;48.884;9.160;2022-12-10T13:14:12;4.60;99.90
3466;DHT22;1747;48.884;9.160;2022-12-10T13:16:49;4.50;99.90
3466;DHT22;1747;48.884;9.160;2022-12-10T13:19:27;4.50;99.90
3466;DHT22;1747;48.884;9.160;2022-12-10T13:22:06;4.50;99.90
3466;DHT22;1747;48.884;9.160;2022-12-10T13:25:10;4.60;99.90
3466;DHT22;1747;48.884;9.160;2022-12-10T13:27:38;4.70;99.90
3466;DHT22;1747;48.884;9.160;2022-12-10T13:30:32;4.80;99.90
3466;DHT22;1747;48.884;9.160;2022-12-10T13:33:10;4.80;99.90
3466;DHT22;1747;48.884;9.160;2022-12-10T13:35:50;4.80;99.90
3466;DHT22;1747;48.884;9.160;2022-12-10T13:38:20;4.80;99.90
3466;DHT22;1747;48.884;9.160;2022-12-10T13:41:00;4.80;99.90
3466;DHT22;1747;48.884;9.160;2022-12-10T13:43:52;4.80;99.90
3466;DHT22;1747;48.884;9.160;2022-12-10T13:46:52;4.70;99.90
3466;DHT22;1747;48.884;9.160;2022-12-10T13:49:20;4.60;99.90
3466;DHT22;1747;48.884;9.160;2022-12-10T13:52:06;4.60;99.90
3466;DHT22;1747;48.884;9.160;2022-12-10T13:55:00;4.60;99.90
3466;DHT22;1747;48.884;9.160;2022-12-10T13:58:09;4.70;99.90
3466;DHT22;1747;48.884;9.160;2022-12-10T14:00:48;4.70;99.90
3466;DHT22;1747;48.884;9.160;2022-12-10T14:03:39;4.70;99.90
3466;DHT22;1747;48.884;9.160;2022-12-10T14:06:15;4.40;99.90
3466;DHT22;1747;48.884;9.160;2022-12-10T14:09:00;4.30;99.90
3466;DHT22;1747;48.884;9.160;2022-12-10T14:11:31;4.30;99.90
3466;DHT22;1747;48.884;9.160;2022-12-10T14:14:00;4.20;99.90
3466;DHT22;1747;48.884;9.160;2022-12-10T14:16:30;4.10;99.90
3466;DHT22;1747;48.884;9.160;2022-12-10T14:19:01;4.10;99.90
3466;DHT22;1747;48.884;9.160;2022-12-10T14:21:32;4.00;99.90
3466;DHT22;1747;48.884;9.160;2022-12-10T14:24:11;3.90;99.90
3466;DHT22;1747;48.884;9.160;2022-12-10T14:26:57;3.90;99.90
3466;DHT22;1747;48.884;9.160;2022-12-10T14:29:25;3.90;99.90
3466;DHT22;1747;48.884;9.160;2022-12-10T14:31:52;3.90;99.90
3466;DHT22;1747;48.884;9.160;2022-12-10T14:34:24;4.00;99.90
3466;DHT22;1747;48.884;9.160;2022-12-10T14:36:53;3.90;99.90
3466;DHT22;1747;48.884;9.160;2022-12-10T14:39:24;4.00;99.90
3466;DHT22;1747;48.884;9.160;2022-12-10T14:41:55;4.00;99.90
3466;DHT22;1747;48.884;9.160;2022-12-10T14:44:22;3.90;99.90
3466;DHT22;1747;48.884;9.160;2022-12-10T14:46:51;3.90;99.90
3466;DHT22;1747;48.884;9.160;2022-12-10T14:49:21;3.90;99.90
3466;DHT22;1747;48.884;9.160;2022-12-10T14:51:49;3.90;99.90
3466;DHT22;1747;48.884;9.160;2022-12-10T14:54:29;3.80;99.90
3466;DHT22;1747;48.884;9.160;2022-12-10T14:56:58;3.70;99.90
3466;DHT22;1747;48.884;9.160;2022-12-10T14:59:28;3.60;99.90
3466;DHT22;1747;48.884;9.160;2022-12-10T15:02:05;3.50;99.90
3466;DHT22;1747;48.884;9.160;2022-12-10T15:04:41;3.50;99.90
3466;DHT22;1747;48.884;9.160;2022-12-10T15:07:13;3.60;99.90
3466;DHT22;1747;48.884;9.160;2022-12-10T15:09:41;3.60;99.90
3466;DHT22;1747;48.884;9.160;2022-12-10T15:12:21;3.60;99.90
3466;DHT22;1747;48.884;9.160;2022-12-10T15:14:49;3.50;99.90
3466;DHT22;1747;48.884;9.160;2022-12-10T15:17:35;3.40;99.90
3466;DHT22;1747;48.884;9.160;2022-12-10T15:20:09;3.30;99.90
3466;DHT22;1747;48.884;9.160;2022-12-10T15:22:36;3.30;99.90
3466;DHT22;1747;48.884;9.160;2022-12-10T15:25:14;3.50;99.90
3466;DHT22;1747;48.884;9.160;2022-12-10T15:27:53;3.50;99.90
3466;DHT22;1747;48.884;9.160;2022-12-10T15:30:24;3.40;99.90
3466;DHT22;1747;48.884;9.160;2022-12-10T15:32:53;3.40;99.90
3466;DHT22;1747;48.884;9.160;2022-12-10T15:35:20;3.40;99.90
3466;DHT22;1747;48.884;9.160;2022-12-10T15:37:48;3.30;99.90
3466;DHT22;1747;48.884;9.160;2022-12-10T15:40:26;3.40;99.90
3466;DHT22;1747;48.884;9.160;2022-12-10T15:42:56;3.30;99.90
3466;DHT22;1747;48.884;9.160;2022-12-10T15:45:38;3.30;99.90
3466;DHT22;1747;48.884;9.160;2022-12-10T15:48:10;3.30;99.90
3466;DHT22;1747;48.884;9.160;2022-12-10T15:50:37;3.20;99.90
3466;DHT22;1747;48.884;9.160;2022-12-10T15:53:05;3.20;99.90
3466;DHT22;1747;48.884;9.160;2022-12-10T15:55:31;3.20;99.90
3466;DHT22;1747;48.884;9.160;2022-12-10T15:57:58;3.20;99.90
3466;DHT22;1747;48.884;9.160;2022-12-10T16:00:26;3.20;99.90
3466;DHT22;1747;48.884;9.160;2022-12-10T16:02:55;3.10;99.90
3466;DHT22;1747;48.884;9.160;2022-12-10T16:05:26;3.30;99.90
3466;DHT22;1747;48.884;9.160;2022-12-10T16:07:55;3.20;99.90
3466;DHT22;1747;48.884;9.160;2022-12-10T16:10:23;3.10;99.90
3466;DHT22;1747;48.884;9.160;2022-12-10T16:12:57;3.10;99.90
3466;DHT22;1747;48.884;9.160;2022-12-10T16:15:27;3.00;99.90
3466;DHT22;1747;48.884;9.160;2022-12-10T16:17:55;2.90;99.90
3466;DHT22;1747;48.884;9.160;2022-12-10T16:20:26;3.00;99.90
3466;DHT22;1747;48.884;9.160;2022-12-10T16:22:53;2.90;99.90
3466;DHT22;1747;48.884;9.160;2022-12-10T16:25:21;3.00;99.90
3466;DHT22;1747;48.884;9.160;2022-12-10T16:27:48;3.00;99.90
3466;DHT22;1747;48.884;9.160;2022-12-10T16:30:18;3.00;99.90
3466;DHT22;1747;48.884;9.160;2022-12-10T16:32:45;3.00;99.90
3466;DHT22;1747;48.884;9.160;2022-12-10T16:35:12;3.10;99.90
3466;DHT22;1747;48.884;9.160;2022-12-10T16:37:42;3.10;99.90
3466;DHT22;1747;48.884;9.160;2022-12-10T16:40:11;3.00;99.90
3466;DHT22;1747;48.884;9.160;2022-12-10T16:42:39;3.00;99.90